sensor_id;sensor_type;location;lat;lon;timestamp;temperature;humidity
11744;DHT22;5929;51.906;7.674;2023-05-10T00:02:08;13.70;99.90
11744;DHT22;5929;51.906;7.674;2023-05-10T00:04:35;13.70;99.90
11744;DHT22;5929;51.906;7.674;2023-05-10T00:07:02;13.70;99.90
11744;DHT22;5929;51.906;7.674;2023-05-10T00:09:29;13.60;99.90
11744;DHT22;5929;51.906;7.674;2023-05-10T00:11:57;13.60;99.90
11744;DHT22;5929;51.906;7.674;2023-05-10T00:14:24;13.60;99.90
11744;DHT22;5929;51.906;7.674;2023-05-10T00:16:51;13.60;99.90
11744;DHT22;5929;51.906;7.674;2023-05-10T00:19:18;13.60;99.90
11744;DHT22;5929;51.906;7.674;2023-05-10T00:21:44;13.60;99.90
11744;DHT22;5929;51.906;7.674;2023-05-10T00:24:11;13.60;99.90
11744;DHT22;5929;51.906;7.674;2023-05-10T00:26:38;13.60;99.90
11744;DHT22;5929;51.906;7.674;2023-05-10T00:29:06;13.60;99.90
11744;DHT22;5929;51.906;7.674;2023-05-10T00:31:33;13.60;99.90
11744;DHT22;5929;51.906;7.674;2023-05-10T00:34:00;13.60;99.90
11744;DHT22;5929;51.906;7.674;2023-05-10T00:36:27;13.60;99.90
11744;DHT22;5929;51.906;7.674;2023-05-10T00:38:56;13.60;99.90
11744;DHT22;5929;51.906;7.674;2023-05-10T00:41:23;13.60;99.90
11744;DHT22;5929;51.906;7.674;2023-05-10T00:43:50;13.60;99.90
11744;DHT22;5929;51.906;7.674;2023-05-10T00:46:18;13.50;99.90
11744;DHT22;5929;51.906;7.674;2023-05-10T00:48:45;13.40;99.90
11744;DHT22;5929;51.906;7.674;2023-05-10T00:51:12;13.40;99.90
11744;DHT22;5929;51.906;7.674;2023-05-10T00:53:40;13.40;99.90
11744;DHT22;5929;51.906;7.674;2023-05-10T00:56:07;13.40;99.90
11744;DHT22;5929;51.906;7.674;2023-05-10T00:58:34;13.40;99.90
11744;DHT22;5929;51.906;7.674;2023-05-10T01:01:01;13.40;99.90
11744;DHT22;5929;51.906;7.674;2023-05-10T01:03:30;13.40;99.90
11744;DHT22;5929;51.906;7.674;2023-05-10T01:06:00;13.40;99.90
11744;DHT22;5929;51.906;7.674;2023-05-10T01:08:27;13.40;99.90
11744;DHT22;5929;51.906;7.674;2023-05-10T01:10:54;13.30;99.90
11744;DHT22;5929;51.906;7.674;2023-05-10T01:13:31;13.30;99.90
11744;DHT22;5929;51.906;7.674;2023-05-10T01:15:59;13.30;99.90
11744;DHT22;5929;51.906;7.674;2023-05-10T01:18:30;13.30;99.90
11744;DHT22;5929;51.906;7.674;2023-05-10T01:21:07;13.30;99.90
11744;DHT22;5929;51.906;7.674;2023-05-10T01:27:03;13.20;99.90
11744;DHT22;5929;51.906;7.674;2023-05-10T01:30:00;13.10;99.90
11744;DHT22;5929;51.906;7.674;2023-05-10T01:32:34;13.10;99.90
11744;DHT22;5929;51.906;7.674;2023-05-10T01:35:04;13.20;99.90
11744;DHT22;5929;51.906;7.674;2023-05-10T01:37:41;13.10;99.90
11744;DHT22;5929;51.906;7.674;2023-05-10T01:40:15;13.10;99.90
11744;DHT22;5929;51.906;7.674;2023-05-10T01:42:49;13.00;99.90
11744;DHT22;5929;51.906;7.674;2023-05-10T01:45:21;13.00;99.90
11744;DHT22;5929;51.906;7.674;2023-05-10T01:48:02;13.00;99.90
11744;DHT22;5929;51.906;7.674;2023-05-10T01:50:31;13.00;99.90
11744;DHT22;5929;51.906;7.674;2023-05-10T01:53:00;13.00;99.90
11744;DHT22;5929;51.906;7.674;2023-05-10T01:55:30;13.00;99.90
11744;DHT22;5929;51.906;7.674;2023-05-10T01:58:02;13.00;99.90
11744;DHT22;5929;51.906;7.674;2023-05-10T02:00:29;13.10;99.90
11744;DHT22;5929;51.906;7.674;2023-05-10T02:03:01;13.00;99.90
11744;DHT22;5929;51.906;7.674;2023-05-10T02:05:32;12.90;99.90
11744;DHT22;5929;51.906;7.674;2023-05-10T02:08:00;12.80;99.90
11744;DHT22;5929;51.906;7.674;2023-05-10T02:10:28;12.80;99.90
11744;DHT22;5929;51.906;7.674;2023-05-10T02:12:55;12.60;99.90
11744;DHT22;5929;51.906;7.674;2023-05-10T02:15:26;12.50;99.90
11744;DHT22;5929;51.906;7.674;2023-05-10T02:17:54;12.50;99.90
11744;DHT22;5929;51.906;7.674;2023-05-10T02:20:24;12.40;99.90
11744;DHT22;5929;51.906;7.674;2023-05-10T02:22:55;12.40;99.90
11744;DHT22;5929;51.906;7.674;2023-05-10T02:25:23;12.40;99.90
11744;DHT22;5929;51.906;7.674;2023-05-10T02:27:54;12.40;99.90
11744;DHT22;5929;51.906;7.674;2023-05-10T02:30:22;12.40;99.90
11744;DHT22;5929;51.906;7.674;2023-05-10T02:32:50;12.30;99.90
11744;DHT22;5929;51.906;7.674;2023-05-10T02:35:18;12.30;99.90
11744;DHT22;5929;51.906;7.674;2023-05-10T02:37:47;12.20;99.90
11744;DHT22;5929;51.906;7.674;2023-05-10T02:40:14;12.20;99.90
11744;DHT22;5929;51.906;7.674;2023-05-10T02:42:42;12.20;99.90
11744;DHT22;5929;51.906;7.674;2023-05-10T02:45:13;12.20;99.90
11744;DHT22;5929;51.906;7.674;2023-05-10T02:47:41;12.10;99.90
11744;DHT22;5929;51.906;7.674;2023-05-10T02:50:09;12.10;99.90
11744;DHT22;5929;51.906;7.674;2023-05-10T02:52:40;12.10;99.90
11744;DHT22;5929;51.906;7.674;2023-05-10T02:55:11;12.10;99.90
11744;DHT22;5929;51.906;7.674;2023-05-10T02:57:42;12.10;99.90
11744;DHT22;5929;51.906;7.674;2023-05-10T03:00:10;12.10;99.90
11744;DHT22;5929;51.906;7.674;2023-05-10T03:02:37;12.20;99.90
11744;DHT22;5929;51.906;7.674;2023-05-10T03:05:04;12.20;99.90
11744;DHT22;5929;51.906;7.674;2023-05-10T03:07:32;12.20;99.90
11744;DHT22;5929;51.906;7.674;2023-05-10T03:09:59;12.10;99.90
11744;DHT22;5929;51.906;7.674;2023-05-10T03:12:41;12.10;99.90
11744;DHT22;5929;51.906;7.674;2023-05-10T03:15:16;12.10;99.90
11744;DHT22;5929;51.906;7.674;2023-05-10T03:17:52;12.10;99.90
11744;DHT22;5929;51.906;7.674;2023-05-10T03:20:24;12.10;99.90
11744;DHT22;5929;51.906;7.674;2023-05-10T03:22:55;12.20;99.90
11744;DHT22;5929;51.906;7.674;2023-05-10T03:25:23;12.20;99.90
11744;DHT22;5929;51.906;7.674;2023-05-10T03:27:52;12.20;99.90
11744;DHT22;5929;51.906;7.674;2023-05-10T03:30:19;12.10;99.90
11744;DHT22;5929;51.906;7.674;2023-05-10T03:32:48;12.10;99.90
11744;DHT22;5929;51.906;7.674;2023-05-10T03:35:15;12.10;99.90
11744;DHT22;5929;51.906;7.674;2023-05-10T03:37:42;12.10;99.90
11744;DHT22;5929;51.906;7.674;2023-05-10T03:40:09;12.10;99.90
11744;DHT22;5929;51.906;7.674;2023-05-10T03:42:38;12.10;99.90
11744;DHT22;5929;51.906;7.674;2023-05-10T03:45:08;12.10;99.90
11744;DHT22;5929;51.906;7.674;2023-05-10T03:47:35;12.10;99.90
11744;DHT22;5929;51.906;7.674;2023-05-10T03:50:02;12.20;99.90
11744;DHT22;5929;51.906;7.674;2023-05-10T03:52:29;12.20;99.90
11744;DHT22;5929;51.906;7.674;2023-05-10T03:54:57;12.20;99.90
11744;DHT22;5929;51.906;7.674;2023-05-10T03:57:24;12.10;99.90
11744;DHT22;5929;51.906;7.674;2023-05-10T03:59:50;12.10;99.90
11744;DHT22;5929;51.906;7.674;2023-05-10T04:02:19;12.10;99.90
11744;DHT22;5929;51.906;7.674;2023-05-10T04:04:45;12.00;99.90
11744;DHT22;5929;51.906;7.674;2023-05-10T04:07:13;12.00;99.90
11744;DHT22;5929;51.906;7.674;2023-05-10T04:09:40;12.10;99.90
11744;DHT22;5929;51.906;7.674;2023-05-10T04:12:07;12.00;99.90
11744;DHT22;5929;51.906;7.674;2023-05-10T04:14:34;12.00;99.90
11744;DHT22;5929;51.906;7.674;2023-05-10T04:17:01;12.00;99.90
11744;DHT22;5929;51.906;7.674;2023-05-10T04:19:31;12.10;99.90
11744;DHT22;5929;51.906;7.674;2023-05-10T04:21:58;12.10;99.90
11744;DHT22;5929;51.906;7.674;2023-05-10T04:24:25;12.10;99.90
11744;DHT22;5929;51.906;7.674;2023-05-10T04:26:52;12.10;99.90
11744;DHT22;5929;51.906;7.674;2023-05-10T04:29:20;12.10;99.90
11744;DHT22;5929;51.906;7.674;2023-05-10T04:31:47;12.10;99.90
11744;DHT22;5929;51.906;7.674;2023-05-10T04:34:14;12.10;99.90
11744;DHT22;5929;51.906;7.674;2023-05-10T04:36:42;12.10;99.90
11744;DHT22;5929;51.906;7.674;2023-05-10T04:39:09;12.10;99.90
11744;DHT22;5929;51.906;7.674;2023-05-10T04:41:37;12.10;99.90
11744;DHT22;5929;51.906;7.674;2023-05-10T04:44:04;12.10;99.90
11744;DHT22;5929;51.906;7.674;2023-05-10T04:46:31;12.10;99.90
11744;DHT22;5929;51.906;7.674;2023-05-10T04:48:58;12.20;99.90
11744;DHT22;5929;51.906;7.674;2023-05-10T04:51:25;12.20;99.90
11744;DHT22;5929;51.906;7.674;2023-05-10T04:53:53;12.30;99.90
11744;DHT22;5929;51.906;7.674;2023-05-10T04:56:20;12.30;99.90
11744;DHT22;5929;51.906;7.674;2023-05-10T04:58:47;12.30;99.90
11744;DHT22;5929;51.906;7.674;2023-05-10T05:01:14;12.40;99.90
11744;DHT22;5929;51.906;7.674;2023-05-10T05:03:41;12.40;99.90
11744;DHT22;5929;51.906;7.674;2023-05-10T05:06:10;12.40;99.90
11744;DHT22;5929;51.906;7.674;2023-05-10T05:08:37;12.50;99.90
11744;DHT22;5929;51.906;7.674;2023-05-10T05:11:08;12.50;99.90
11744;DHT22;5929;51.906;7.674;2023-05-10T05:13:34;12.50;99.90
11744;DHT22;5929;51.906;7.674;2023-05-10T05:16:01;12.60;99.90
11744;DHT22;5929;51.906;7.674;2023-05-10T05:18:28;12.60;99.90
11744;DHT22;5929;51.906;7.674;2023-05-10T05:20:55;12.60;99.90
11744;DHT22;5929;51.906;7.674;2023-05-10T05:23:22;12.60;99.90
11744;DHT22;5929;51.906;7.674;2023-05-10T05:25:51;12.70;99.90
11744;DHT22;5929;51.906;7.674;2023-05-10T05:28:21;12.70;99.90
11744;DHT22;5929;51.906;7.674;2023-05-10T05:30:48;12.70;99.90
11744;DHT22;5929;51.906;7.674;2023-05-10T05:33:15;12.70;99.90
11744;DHT22;5929;51.906;7.674;2023-05-10T05:35:42;12.80;99.90
11744;DHT22;5929;51.906;7.674;2023-05-10T05:38:13;12.80;99.90
11744;DHT22;5929;51.906;7.674;2023-05-10T05:40:39;12.70;99.90
11744;DHT22;5929;51.906;7.674;2023-05-10T05:43:06;12.70;99.90
11744;DHT22;5929;51.906;7.674;2023-05-10T05:45:34;12.70;99.90
11744;DHT22;5929;51.906;7.674;2023-05-10T05:48:01;12.70;99.90
11744;DHT22;5929;51.906;7.674;2023-05-10T05:50:28;12.70;99.90
11744;DHT22;5929;51.906;7.674;2023-05-10T05:52:55;12.80;99.90
11744;DHT22;5929;51.906;7.674;2023-05-10T05:55:22;12.80;99.90
11744;DHT22;5929;51.906;7.674;2023-05-10T05:57:49;12.90;99.90
11744;DHT22;5929;51.906;7.674;2023-05-10T06:00:16;12.90;99.90
11744;DHT22;5929;51.906;7.674;2023-05-10T06:02:44;13.00;99.90
11744;DHT22;5929;51.906;7.674;2023-05-10T06:05:11;13.00;99.90
11744;DHT22;5929;51.906;7.674;2023-05-10T06:07:39;13.00;99.90
11744;DHT22;5929;51.906;7.674;2023-05-10T06:10:07;13.00;99.90
11744;DHT22;5929;51.906;7.674;2023-05-10T06:12:34;13.00;99.90
11744;DHT22;5929;51.906;7.674;2023-05-10T06:15:01;13.00;99.90
11744;DHT22;5929;51.906;7.674;2023-05-10T06:17:28;13.00;99.90
11744;DHT22;5929;51.906;7.674;2023-05-10T06:19:56;13.00;99.90
11744;DHT22;5929;51.906;7.674;2023-05-10T06:22:23;12.90;99.90
11744;DHT22;5929;51.906;7.674;2023-05-10T06:24:50;12.90;99.90
11744;DHT22;5929;51.906;7.674;2023-05-10T06:27:17;12.90;99.90
11744;DHT22;5929;51.906;7.674;2023-05-10T06:29:43;12.90;99.90
11744;DHT22;5929;51.906;7.674;2023-05-10T06:32:10;12.90;99.90
11744;DHT22;5929;51.906;7.674;2023-05-10T06:34:37;12.90;99.90
11744;DHT22;5929;51.906;7.674;2023-05-10T06:37:05;13.00;99.90
11744;DHT22;5929;51.906;7.674;2023-05-10T06:39:32;13.10;99.90
11744;DHT22;5929;51.906;7.674;2023-05-10T06:42:01;13.10;99.90
11744;DHT22;5929;51.906;7.674;2023-05-10T06:44:30;13.20;99.90
11744;DHT22;5929;51.906;7.674;2023-05-10T06:46:56;13.20;99.90
11744;DHT22;5929;51.906;7.674;2023-05-10T06:49:23;13.20;99.90
11744;DHT22;5929;51.906;7.674;2023-05-10T06:51:50;13.10;99.90
11744;DHT22;5929;51.906;7.674;2023-05-10T06:54:18;13.10;99.90
11744;DHT22;5929;51.906;7.674;2023-05-10T06:56:45;13.10;99.90
11744;DHT22;5929;51.906;7.674;2023-05-10T06:59:12;13.10;99.90
11744;DHT22;5929;51.906;7.674;2023-05-10T07:01:40;13.10;99.90
11744;DHT22;5929;51.906;7.674;2023-05-10T07:04:07;13.10;99.90
11744;DHT22;5929;51.906;7.674;2023-05-10T07:06:36;13.10;99.90
11744;DHT22;5929;51.906;7.674;2023-05-10T07:09:03;13.10;99.90
11744;DHT22;5929;51.906;7.674;2023-05-10T07:11:31;13.10;99.90
11744;DHT22;5929;51.906;7.674;2023-05-10T07:13:58;13.10;99.90
11744;DHT22;5929;51.906;7.674;2023-05-10T07:16:25;13.20;99.90
11744;DHT22;5929;51.906;7.674;2023-05-10T07:18:52;13.10;99.90
11744;DHT22;5929;51.906;7.674;2023-05-10T07:21:19;13.10;99.90
11744;DHT22;5929;51.906;7.674;2023-05-10T07:23:48;13.20;99.90
11744;DHT22;5929;51.906;7.674;2023-05-10T07:26:15;13.20;99.90
11744;DHT22;5929;51.906;7.674;2023-05-10T07:28:43;13.20;99.90
11744;DHT22;5929;51.906;7.674;2023-05-10T07:31:10;13.20;99.90
11744;DHT22;5929;51.906;7.674;2023-05-10T07:33:37;13.10;99.90
11744;DHT22;5929;51.906;7.674;2023-05-10T07:36:04;13.10;99.90
11744;DHT22;5929;51.906;7.674;2023-05-10T07:38:31;13.20;99.90
11744;DHT22;5929;51.906;7.674;2023-05-10T07:40:58;13.40;99.90
11744;DHT22;5929;51.906;7.674;2023-05-10T07:43:25;13.40;99.90
11744;DHT22;5929;51.906;7.674;2023-05-10T07:45:53;13.50;99.90
11744;DHT22;5929;51.906;7.674;2023-05-10T07:48:19;13.50;99.90
11744;DHT22;5929;51.906;7.674;2023-05-10T07:50:46;13.50;99.90
11744;DHT22;5929;51.906;7.674;2023-05-10T07:53:13;13.50;99.90
11744;DHT22;5929;51.906;7.674;2023-05-10T07:55:40;13.50;99.90
11744;DHT22;5929;51.906;7.674;2023-05-10T07:58:07;13.60;99.90
11744;DHT22;5929;51.906;7.674;2023-05-10T08:00:34;13.70;99.90
11744;DHT22;5929;51.906;7.674;2023-05-10T08:03:02;13.80;99.90
11744;DHT22;5929;51.906;7.674;2023-05-10T08:05:29;13.70;99.90
11744;DHT22;5929;51.906;7.674;2023-05-10T08:07:56;13.60;99.90
11744;DHT22;5929;51.906;7.674;2023-05-10T08:10:24;13.90;99.90
11744;DHT22;5929;51.906;7.674;2023-05-10T08:12:51;14.20;99.90
11744;DHT22;5929;51.906;7.674;2023-05-10T08:15:18;14.30;99.90
11744;DHT22;5929;51.906;7.674;2023-05-10T08:17:44;14.60;99.90
11744;DHT22;5929;51.906;7.674;2023-05-10T08:20:13;14.70;99.90
11744;DHT22;5929;51.906;7.674;2023-05-10T08:22:42;14.60;99.90
11744;DHT22;5929;51.906;7.674;2023-05-10T08:25:09;14.40;99.90
11744;DHT22;5929;51.906;7.674;2023-05-10T08:27:38;14.30;99.90
11744;DHT22;5929;51.906;7.674;2023-05-10T08:30:06;14.20;99.90
11744;DHT22;5929;51.906;7.674;2023-05-10T08:32:33;14.10;99.90
11744;DHT22;5929;51.906;7.674;2023-05-10T08:35:00;14.10;99.90
11744;DHT22;5929;51.906;7.674;2023-05-10T08:37:31;14.20;99.90
11744;DHT22;5929;51.906;7.674;2023-05-10T08:39:58;14.40;99.90
11744;DHT22;5929;51.906;7.674;2023-05-10T08:42:26;14.60;99.90
11744;DHT22;5929;51.906;7.674;2023-05-10T08:44:56;14.70;99.90
11744;DHT22;5929;51.906;7.674;2023-05-10T08:47:23;14.60;99.90
11744;DHT22;5929;51.906;7.674;2023-05-10T08:49:52;14.80;99.90
11744;DHT22;5929;51.906;7.674;2023-05-10T08:52:19;15.00;99.90
11744;DHT22;5929;51.906;7.674;2023-05-10T08:54:48;15.20;99.90
11744;DHT22;5929;51.906;7.674;2023-05-10T08:57:19;15.30;99.90
11744;DHT22;5929;51.906;7.674;2023-05-10T08:59:46;15.20;99.90
11744;DHT22;5929;51.906;7.674;2023-05-10T09:02:13;15.20;99.90
11744;DHT22;5929;51.906;7.674;2023-05-10T09:04:40;15.20;99.90
11744;DHT22;5929;51.906;7.674;2023-05-10T09:07:07;15.20;99.90
11744;DHT22;5929;51.906;7.674;2023-05-10T09:09:35;15.30;99.90
11744;DHT22;5929;51.906;7.674;2023-05-10T09:12:04;15.30;99.90
11744;DHT22;5929;51.906;7.674;2023-05-10T09:14:30;15.30;99.90
11744;DHT22;5929;51.906;7.674;2023-05-10T09:17:00;15.40;99.90
11744;DHT22;5929;51.906;7.674;2023-05-10T09:19:28;15.70;99.90
11744;DHT22;5929;51.906;7.674;2023-05-10T09:21:55;15.90;99.90
11744;DHT22;5929;51.906;7.674;2023-05-10T09:24:25;16.00;99.90
11744;DHT22;5929;51.906;7.674;2023-05-10T09:26:52;16.10;99.90
11744;DHT22;5929;51.906;7.674;2023-05-10T09:29:20;16.10;99.90
11744;DHT22;5929;51.906;7.674;2023-05-10T09:31:48;16.30;99.90
11744;DHT22;5929;51.906;7.674;2023-05-10T09:34:18;16.50;99.90
11744;DHT22;5929;51.906;7.674;2023-05-10T09:36:53;16.80;99.90
11744;DHT22;5929;51.906;7.674;2023-05-10T09:39:21;16.90;99.90
11744;DHT22;5929;51.906;7.674;2023-05-10T09:41:56;17.00;99.90
11744;DHT22;5929;51.906;7.674;2023-05-10T09:44:25;17.00;99.90
11744;DHT22;5929;51.906;7.674;2023-05-10T09:46:52;16.90;99.90
11744;DHT22;5929;51.906;7.674;2023-05-10T09:49:19;16.90;99.90
11744;DHT22;5929;51.906;7.674;2023-05-10T09:51:47;17.10;99.90
11744;DHT22;5929;51.906;7.674;2023-05-10T09:54:15;16.90;99.90
11744;DHT22;5929;51.906;7.674;2023-05-10T09:56:42;16.90;99.90
11744;DHT22;5929;51.906;7.674;2023-05-10T09:59:10;16.90;99.90
11744;DHT22;5929;51.906;7.674;2023-05-10T10:01:41;16.80;99.90
11744;DHT22;5929;51.906;7.674;2023-05-10T10:04:09;16.80;99.90
11744;DHT22;5929;51.906;7.674;2023-05-10T10:06:37;16.90;99.90
11744;DHT22;5929;51.906;7.674;2023-05-10T10:09:04;17.10;99.90
11744;DHT22;5929;51.906;7.674;2023-05-10T10:11:33;17.30;99.90
11744;DHT22;5929;51.906;7.674;2023-05-10T10:14:00;17.10;99.90
11744;DHT22;5929;51.906;7.674;2023-05-10T10:16:29;16.90;99.90
11744;DHT22;5929;51.906;7.674;2023-05-10T10:18:57;16.80;99.90
11744;DHT22;5929;51.906;7.674;2023-05-10T10:21:24;16.60;99.90
11744;DHT22;5929;51.906;7.674;2023-05-10T10:23:54;16.50;99.90
11744;DHT22;5929;51.906;7.674;2023-05-10T10:26:21;16.70;99.90
11744;DHT22;5929;51.906;7.674;2023-05-10T10:28:54;16.80;99.90
11744;DHT22;5929;51.906;7.674;2023-05-10T10:31:27;17.00;99.90
11744;DHT22;5929;51.906;7.674;2023-05-10T10:34:05;17.10;99.90
11744;DHT22;5929;51.906;7.674;2023-05-10T10:36:33;17.30;99.90
11744;DHT22;5929;51.906;7.674;2023-05-10T10:39:10;17.50;99.90
11744;DHT22;5929;51.906;7.674;2023-05-10T10:41:38;17.70;99.90
11744;DHT22;5929;51.906;7.674;2023-05-10T10:44:26;17.70;99.90
11744;DHT22;5929;51.906;7.674;2023-05-10T10:47:04;18.00;99.90
11744;DHT22;5929;51.906;7.674;2023-05-10T10:49:38;17.90;99.90
11744;DHT22;5929;51.906;7.674;2023-05-10T10:52:15;17.80;99.90
11744;DHT22;5929;51.906;7.674;2023-05-10T10:54:50;17.90;99.90
11744;DHT22;5929;51.906;7.674;2023-05-10T10:57:19;17.90;99.90
11744;DHT22;5929;51.906;7.674;2023-05-10T10:59:47;17.80;99.90
11744;DHT22;5929;51.906;7.674;2023-05-10T11:02:34;17.90;99.90
11744;DHT22;5929;51.906;7.674;2023-05-10T11:08:14;18.60;99.90
11744;DHT22;5929;51.906;7.674;2023-05-10T11:11:03;18.70;99.90
11744;DHT22;5929;51.906;7.674;2023-05-10T11:13:33;18.50;99.90
11744;DHT22;5929;51.906;7.674;2023-05-10T11:16:10;18.50;99.90
11744;DHT22;5929;51.906;7.674;2023-05-10T11:18:38;19.10;99.90
11744;DHT22;5929;51.906;7.674;2023-05-10T11:21:08;19.50;99.90
11744;DHT22;5929;51.906;7.674;2023-05-10T11:23:49;19.50;99.90
11744;DHT22;5929;51.906;7.674;2023-05-10T11:26:17;19.60;99.90
11744;DHT22;5929;51.906;7.674;2023-05-10T11:28:44;19.00;99.90
11744;DHT22;5929;51.906;7.674;2023-05-10T11:31:13;18.50;99.90
11744;DHT22;5929;51.906;7.674;2023-05-10T11:33:43;18.10;99.90
11744;DHT22;5929;51.906;7.674;2023-05-10T11:36:13;17.20;99.90
11744;DHT22;5929;51.906;7.674;2023-05-10T11:38:43;16.20;99.90
11744;DHT22;5929;51.906;7.674;2023-05-10T11:41:10;15.40;99.90
11744;DHT22;5929;51.906;7.674;2023-05-10T11:43:39;15.20;99.90
11744;DHT22;5929;51.906;7.674;2023-05-10T11:46:07;15.30;99.90
11744;DHT22;5929;51.906;7.674;2023-05-10T11:48:34;15.30;99.90
11744;DHT22;5929;51.906;7.674;2023-05-10T11:51:01;15.40;99.90
11744;DHT22;5929;51.906;7.674;2023-05-10T11:53:31;16.10;99.90
11744;DHT22;5929;51.906;7.674;2023-05-10T11:56:03;17.10;99.90
11744;DHT22;5929;51.906;7.674;2023-05-10T11:58:30;17.40;99.90
11744;DHT22;5929;51.906;7.674;2023-05-10T12:00:57;17.60;99.90
11744;DHT22;5929;51.906;7.674;2023-05-10T12:03:24;17.10;99.90
11744;DHT22;5929;51.906;7.674;2023-05-10T12:05:51;17.00;99.90
11744;DHT22;5929;51.906;7.674;2023-05-10T12:08:22;16.80;99.90
11744;DHT22;5929;51.906;7.674;2023-05-10T12:10:51;16.30;99.90
11744;DHT22;5929;51.906;7.674;2023-05-10T12:13:19;15.90;99.90
11744;DHT22;5929;51.906;7.674;2023-05-10T12:15:46;15.80;99.90
11744;DHT22;5929;51.906;7.674;2023-05-10T12:18:14;15.80;99.90
11744;DHT22;5929;51.906;7.674;2023-05-10T12:20:41;16.00;99.90
11744;DHT22;5929;51.906;7.674;2023-05-10T12:23:09;16.40;99.90
11744;DHT22;5929;51.906;7.674;2023-05-10T12:25:37;16.90;99.90
11744;DHT22;5929;51.906;7.674;2023-05-10T12:28:07;17.20;99.90
11744;DHT22;5929;51.906;7.674;2023-05-10T12:30:35;18.00;99.90
11744;DHT22;5929;51.906;7.674;2023-05-10T12:33:07;18.40;99.90
11744;DHT22;5929;51.906;7.674;2023-05-10T12:35:44;18.40;99.90
11744;DHT22;5929;51.906;7.674;2023-05-10T12:38:27;18.10;99.90
11744;DHT22;5929;51.906;7.674;2023-05-10T12:40:56;18.10;99.90
11744;DHT22;5929;51.906;7.674;2023-05-10T12:43:24;17.90;99.90
11744;DHT22;5929;51.906;7.674;2023-05-10T12:45:57;17.70;99.90
11744;DHT22;5929;51.906;7.674;2023-05-10T12:48:24;17.60;99.90
11744;DHT22;5929;51.906;7.674;2023-05-10T12:50:51;17.40;99.90
11744;DHT22;5929;51.906;7.674;2023-05-10T12:53:18;17.40;99.90
11744;DHT22;5929;51.906;7.674;2023-05-10T12:55:45;17.40;99.90
11744;DHT22;5929;51.906;7.674;2023-05-10T12:58:12;17.40;99.90
11744;DHT22;5929;51.906;7.674;2023-05-10T13:00:41;17.30;99.90
11744;DHT22;5929;51.906;7.674;2023-05-10T13:03:09;17.40;99.90
11744;DHT22;5929;51.906;7.674;2023-05-10T13:05:36;17.50;99.90
11744;DHT22;5929;51.906;7.674;2023-05-10T13:08:03;17.60;99.90
11744;DHT22;5929;51.906;7.674;2023-05-10T13:10:32;17.60;99.90
11744;DHT22;5929;51.906;7.674;2023-05-10T13:12:59;17.80;99.90
11744;DHT22;5929;51.906;7.674;2023-05-10T13:15:26;18.00;99.90
11744;DHT22;5929;51.906;7.674;2023-05-10T13:17:57;18.20;99.90
11744;DHT22;5929;51.906;7.674;2023-05-10T13:20:24;19.10;99.90
11744;DHT22;5929;51.906;7.674;2023-05-10T13:22:51;19.90;99.90
11744;DHT22;5929;51.906;7.674;2023-05-10T13:25:20;20.50;99.10
11744;DHT22;5929;51.906;7.674;2023-05-10T13:27:49;20.70;99.40
11744;DHT22;5929;51.906;7.674;2023-05-10T13:30:16;21.40;98.40
11744;DHT22;5929;51.906;7.674;2023-05-10T13:32:43;21.10;98.20
11744;DHT22;5929;51.906;7.674;2023-05-10T13:35:11;20.90;97.60
11744;DHT22;5929;51.906;7.674;2023-05-10T13:37:38;20.50;97.00
11744;DHT22;5929;51.906;7.674;2023-05-10T13:40:06;20.70;96.80
11744;DHT22;5929;51.906;7.674;2023-05-10T13:42:33;21.00;96.50
11744;DHT22;5929;51.906;7.674;2023-05-10T13:44:59;21.40;96.00
11744;DHT22;5929;51.906;7.674;2023-05-10T13:47:27;20.70;97.20
11744;DHT22;5929;51.906;7.674;2023-05-10T13:49:54;20.20;98.30
11744;DHT22;5929;51.906;7.674;2023-05-10T13:52:22;20.30;98.60
11744;DHT22;5929;51.906;7.674;2023-05-10T13:54:49;20.70;98.00
11744;DHT22;5929;51.906;7.674;2023-05-10T13:57:17;21.00;97.60
11744;DHT22;5929;51.906;7.674;2023-05-10T13:59:44;20.90;97.10
11744;DHT22;5929;51.906;7.674;2023-05-10T14:02:11;20.50;98.60
11744;DHT22;5929;51.906;7.674;2023-05-10T14:04:38;20.30;97.90
11744;DHT22;5929;51.906;7.674;2023-05-10T14:07:05;20.20;98.30
11744;DHT22;5929;51.906;7.674;2023-05-10T14:09:36;19.70;99.50
11744;DHT22;5929;51.906;7.674;2023-05-10T14:12:03;19.40;99.50
11744;DHT22;5929;51.906;7.674;2023-05-10T14:14:29;19.10;99.50
11744;DHT22;5929;51.906;7.674;2023-05-10T14:16:56;19.10;99.90
11744;DHT22;5929;51.906;7.674;2023-05-10T14:19:24;19.00;99.90
11744;DHT22;5929;51.906;7.674;2023-05-10T14:21:52;18.90;99.90
11744;DHT22;5929;51.906;7.674;2023-05-10T14:24:19;18.70;99.90
11744;DHT22;5929;51.906;7.674;2023-05-10T14:26:49;18.50;99.90
11744;DHT22;5929;51.906;7.674;2023-05-10T14:29:21;18.30;99.90
11744;DHT22;5929;51.906;7.674;2023-05-10T14:31:48;18.10;99.90
11744;DHT22;5929;51.906;7.674;2023-05-10T14:34:17;18.10;99.90
11744;DHT22;5929;51.906;7.674;2023-05-10T14:36:44;17.90;99.90
11744;DHT22;5929;51.906;7.674;2023-05-10T14:39:11;18.00;99.90
11744;DHT22;5929;51.906;7.674;2023-05-10T14:41:39;17.90;99.90
11744;DHT22;5929;51.906;7.674;2023-05-10T14:44:08;17.90;99.90
11744;DHT22;5929;51.906;7.674;2023-05-10T14:46:35;17.90;99.90
11744;DHT22;5929;51.906;7.674;2023-05-10T14:49:02;17.80;99.90
11744;DHT22;5929;51.906;7.674;2023-05-10T14:51:29;17.80;99.90
11744;DHT22;5929;51.906;7.674;2023-05-10T14:53:57;18.00;99.90
11744;DHT22;5929;51.906;7.674;2023-05-10T14:56:24;18.50;99.90
11744;DHT22;5929;51.906;7.674;2023-05-10T14:58:51;18.60;99.90
11744;DHT22;5929;51.906;7.674;2023-05-10T15:01:19;18.60;99.90
11744;DHT22;5929;51.906;7.674;2023-05-10T15:03:46;18.30;99.90
11744;DHT22;5929;51.906;7.674;2023-05-10T15:06:14;18.10;99.90
11744;DHT22;5929;51.906;7.674;2023-05-10T15:08:41;18.00;99.90
11744;DHT22;5929;51.906;7.674;2023-05-10T15:11:08;17.80;99.90
11744;DHT22;5929;51.906;7.674;2023-05-10T15:13:35;17.60;99.90
11744;DHT22;5929;51.906;7.674;2023-05-10T15:16:02;17.50;99.90
11744;DHT22;5929;51.906;7.674;2023-05-10T15:18:32;17.60;99.90
11744;DHT22;5929;51.906;7.674;2023-05-10T15:21:01;17.60;99.90
11744;DHT22;5929;51.906;7.674;2023-05-10T15:23:28;17.50;99.90
11744;DHT22;5929;51.906;7.674;2023-05-10T15:25:55;17.50;99.90
11744;DHT22;5929;51.906;7.674;2023-05-10T15:28:22;17.40;99.90
11744;DHT22;5929;51.906;7.674;2023-05-10T15:30:49;17.30;99.90
11744;DHT22;5929;51.906;7.674;2023-05-10T15:33:16;17.20;99.90
11744;DHT22;5929;51.906;7.674;2023-05-10T15:35:44;17.20;99.90
11744;DHT22;5929;51.906;7.674;2023-05-10T15:38:11;17.20;99.90
11744;DHT22;5929;51.906;7.674;2023-05-10T15:40:40;17.20;99.90
11744;DHT22;5929;51.906;7.674;2023-05-10T15:43:07;17.20;99.90
11744;DHT22;5929;51.906;7.674;2023-05-10T15:45:36;17.30;99.90
11744;DHT22;5929;51.906;7.674;2023-05-10T15:48:04;17.30;99.90
11744;DHT22;5929;51.906;7.674;2023-05-10T15:50:31;17.30;99.90
11744;DHT22;5929;51.906;7.674;2023-05-10T15:53:01;17.40;99.90
11744;DHT22;5929;51.906;7.674;2023-05-10T15:55:28;17.60;99.90
11744;DHT22;5929;51.906;7.674;2023-05-10T15:57:55;17.60;99.90
11744;DHT22;5929;51.906;7.674;2023-05-10T16:00:22;17.50;99.90